createdAt,value
2022-08-11T00:00:36.577Z,2.10
2022-08-11T00:03:46.050Z,2.53
2022-08-11T00:06:49.142Z,1.55
2022-08-11T00:09:53.017Z,2.40
2022-08-11T00:13:00.761Z,2.17
2022-08-11T00:16:10.966Z,1.67
2022-08-11T00:19:20.332Z,2.38
2022-08-11T00:22:45.732Z,1.65
2022-08-11T00:25:52.197Z,1.95
2022-08-11T00:28:56.865Z,2.38
2022-08-11T00:32:03.139Z,2.05
2022-08-11T00:35:54.361Z,2.10
2022-08-11T00:38:33.274Z,2.15
2022-08-11T00:42:24.911Z,2.55
2022-08-11T00:45:35.630Z,2.17
2022-08-11T00:48:58.149Z,2.10
2022-08-11T00:52:21.182Z,1.98
2022-08-11T00:55:54.570Z,2.28
2022-08-11T00:59:35.555Z,2.33
2022-08-11T01:02:58.286Z,2.45
2022-08-11T01:06:21.417Z,3.15
2022-08-11T01:09:45.510Z,2.38
2022-08-11T01:13:18.841Z,2.47
2022-08-11T01:16:50.225Z,2.33
2022-08-11T01:20:45.452Z,2.35
2022-08-11T01:23:58.154Z,2.58
2022-08-11T01:27:34.055Z,2.33
2022-08-11T01:30:54.461Z,3.35
2022-08-11T01:34:21.070Z,2.33
2022-08-11T01:37:23.138Z,2.45
2022-08-11T01:40:53.067Z,2.50
2022-08-11T01:44:31.244Z,2.70
2022-08-11T01:47:53.405Z,2.03
2022-08-11T01:51:17.505Z,2.15
2022-08-11T01:54:27.439Z,2.17
2022-08-11T01:57:35.468Z,2.63
2022-08-11T02:00:54.509Z,2.30
2022-08-11T02:04:18.465Z,2.33
2022-08-11T02:08:18.995Z,1.80
2022-08-11T02:11:34.469Z,1.58
2022-08-11T02:15:05.388Z,1.98
2022-08-11T02:18:54.755Z,2.35
2022-08-11T02:22:25.665Z,1.85
2022-08-11T02:25:38.374Z,2.33
2022-08-11T02:28:45.085Z,2.08
2022-08-11T02:36:00.970Z,2.05
2022-08-11T02:39:11.415Z,2.63
2022-08-11T02:42:36.130Z,2.50
2022-08-11T02:45:54.845Z,1.95
2022-08-11T02:49:24.236Z,2.15
2022-08-11T02:52:32.131Z,2.30
2022-08-11T02:56:08.925Z,2.40
2022-08-11T02:59:53.045Z,3.08
2022-08-11T03:03:18.797Z,2.13
2022-08-11T03:06:38.907Z,2.03
2022-08-11T03:09:49.644Z,3.75
2022-08-11T03:13:16.337Z,2.50
2022-08-11T03:16:47.119Z,2.53
2022-08-11T03:20:10.857Z,2.85
2022-08-11T03:23:31.429Z,3.00
2022-08-11T03:26:47.383Z,2.67
2022-08-11T03:30:04.835Z,2.55
2022-08-11T03:33:47.330Z,2.75
2022-08-11T03:37:15.388Z,3.25
2022-08-11T03:40:44.296Z,3.03
2022-08-11T03:43:58.381Z,3.05
2022-08-11T03:47:09.756Z,2.35
2022-08-11T03:50:45.621Z,2.22
2022-08-11T03:54:18.801Z,2.28
2022-08-11T03:57:50.214Z,3.83
2022-08-11T04:01:20.280Z,3.35
2022-08-11T04:05:00.056Z,3.50
2022-08-11T04:08:15.978Z,2.13
2022-08-11T04:11:41.361Z,3.42
2022-08-11T04:15:20.603Z,2.20
2022-08-11T04:19:01.068Z,2.57
2022-08-11T04:22:18.106Z,2.17
2022-08-11T04:26:16.102Z,2.78
2022-08-11T04:30:03.914Z,2.05
2022-08-11T04:33:09.595Z,2.15
2022-08-11T04:36:58.190Z,2.00
2022-08-11T04:40:30.636Z,2.30
2022-08-11T04:44:06.407Z,2.65
2022-08-11T04:48:03.321Z,2.95
2022-08-11T04:51:45.041Z,2.28
2022-08-11T04:55:33.679Z,2.28
2022-08-11T04:59:01.041Z,2.00
2022-08-11T05:02:17.545Z,2.60
2022-08-11T05:05:56.873Z,2.28
2022-08-11T05:09:13.006Z,2.13
2022-08-11T05:12:51.876Z,2.60
2022-08-11T05:16:14.872Z,2.40
2022-08-11T05:19:39.662Z,2.00
2022-08-11T05:23:10.596Z,2.35
2022-08-11T05:26:45.981Z,2.67
2022-08-11T05:30:21.631Z,2.08
2022-08-11T05:33:55.128Z,2.08
2022-08-11T05:37:26.647Z,1.85
2022-08-11T05:40:51.163Z,2.67
2022-08-11T05:44:19.932Z,2.15
2022-08-11T05:47:46.332Z,2.07
2022-08-11T05:51:11.768Z,3.03
2022-08-11T05:54:37.661Z,1.90
2022-08-11T05:57:50.818Z,1.60
2022-08-11T06:00:54.240Z,2.38
2022-08-11T06:04:16.965Z,2.50
2022-08-11T06:07:27.027Z,2.25
2022-08-11T06:10:34.612Z,2.55
2022-08-11T06:13:44.904Z,2.75
2022-08-11T06:16:53.503Z,2.63
2022-08-11T06:20:06.795Z,2.20
2022-08-11T06:23:11.423Z,2.13
2022-08-11T06:26:15.008Z,2.05
2022-08-11T06:29:18.687Z,1.98
2022-08-11T06:32:25.582Z,2.63
2022-08-11T06:35:48.430Z,1.95
2022-08-11T06:39:11.906Z,2.20
2022-08-11T06:42:33.018Z,2.00
2022-08-11T06:45:42.189Z,2.33
2022-08-11T06:48:45.458Z,1.88
2022-08-11T06:51:48.459Z,2.10
2022-08-11T06:55:05.640Z,2.53
2022-08-11T06:58:35.050Z,2.22
2022-08-11T07:04:54.546Z,2.58
2022-08-11T07:09:04.329Z,2.53
2022-08-11T07:13:06.179Z,2.22
2022-08-11T07:16:14.032Z,2.25
2022-08-11T07:19:40.771Z,2.38
2022-08-11T07:23:11.630Z,2.45
2022-08-11T07:29:36.889Z,2.30
2022-08-11T07:32:50.341Z,2.47
2022-08-11T07:35:56.929Z,2.58
2022-08-11T07:39:00.504Z,2.40
2022-08-11T07:42:09.119Z,2.70
2022-08-11T07:45:30.843Z,2.38
2022-08-11T07:48:53.323Z,2.05
2022-08-11T07:52:14.548Z,1.98
2022-08-11T07:55:19.718Z,2.22
2022-08-11T07:58:45.174Z,2.47
2022-08-11T08:02:10.727Z,2.53
2022-08-11T08:05:33.171Z,2.25
2022-08-11T08:08:56.000Z,2.03
2022-08-11T08:12:19.365Z,2.28
2022-08-11T08:15:41.144Z,1.70
2022-08-11T08:18:44.470Z,2.22
2022-08-11T08:21:48.631Z,2.30
2022-08-11T08:24:52.174Z,2.00
2022-08-11T08:27:56.574Z,2.38
2022-08-11T08:30:59.059Z,2.08
2022-08-11T08:34:01.560Z,2.20
2022-08-11T08:37:15.846Z,1.88
2022-08-11T08:40:28.349Z,2.97
2022-08-11T08:43:48.446Z,2.08
2022-08-11T08:46:56.599Z,1.73
2022-08-11T08:50:05.683Z,2.17
2022-08-11T08:53:08.882Z,1.95
2022-08-11T08:56:11.919Z,2.10
2022-08-11T08:59:15.957Z,2.10
2022-08-11T09:02:33.607Z,2.70
2022-08-11T09:08:41.005Z,2.22
2022-08-11T09:11:50.872Z,2.15
2022-08-11T09:15:06.386Z,2.70
2022-08-11T09:18:11.143Z,2.08
2022-08-11T09:21:15.603Z,1.48
2022-08-11T09:24:57.975Z,1.58
2022-08-11T09:28:01.561Z,2.63
2022-08-11T09:31:06.273Z,2.15
2022-08-11T09:34:13.991Z,2.70
2022-08-11T09:37:55.452Z,2.30
2022-08-11T09:40:58.377Z,2.13
2022-08-11T09:44:20.452Z,2.00
2022-08-11T09:47:28.635Z,1.83
2022-08-11T09:50:32.995Z,2.28
2022-08-11T09:53:41.235Z,2.05
2022-08-11T09:57:05.288Z,2.30
2022-08-11T10:00:12.306Z,2.20
2022-08-11T10:03:22.161Z,2.17
2022-08-11T10:06:44.434Z,2.10
2022-08-11T10:09:59.075Z,2.63
2022-08-11T10:14:03.836Z,2.38
2022-08-11T10:16:30.894Z,2.08
2022-08-11T10:19:36.300Z,2.53
2022-08-11T10:22:59.151Z,2.28
2022-08-11T10:26:22.084Z,2.33
2022-08-11T10:29:57.966Z,1.67
2022-08-11T10:33:37.526Z,2.08
2022-08-11T10:36:50.801Z,2.53
2022-08-11T10:39:56.472Z,2.20
2022-08-11T10:43:07.149Z,2.40
2022-08-11T10:46:30.332Z,2.10
2022-08-11T10:49:33.435Z,2.33
2022-08-11T10:52:56.185Z,2.10
2022-08-11T10:56:18.314Z,2.33
2022-08-11T10:59:21.181Z,2.00
2022-08-11T11:02:24.322Z,2.25
2022-08-11T11:05:31.572Z,1.85
2022-08-11T11:09:00.200Z,2.17
2022-08-11T11:12:43.809Z,1.67
2022-08-11T11:16:06.643Z,2.60
2022-08-11T11:19:11.371Z,1.88
2022-08-11T11:22:34.565Z,1.98
2022-08-11T11:26:14.903Z,1.67
2022-08-11T11:29:53.158Z,1.95
2022-08-11T11:33:11.205Z,2.08
2022-08-11T11:36:32.810Z,2.17
2022-08-11T11:39:36.855Z,2.38
2022-08-11T11:42:41.643Z,2.33
2022-08-11T11:45:44.568Z,2.08
2022-08-11T11:48:47.737Z,1.88
2022-08-11T11:51:55.261Z,1.60
2022-08-11T11:54:59.868Z,1.83
2022-08-11T11:58:22.409Z,1.60
2022-08-11T12:01:25.807Z,1.67
2022-08-11T12:04:29.120Z,1.85
2022-08-11T12:08:04.944Z,2.17
2022-08-11T12:11:31.944Z,1.95
2022-08-11T12:14:34.338Z,2.60
2022-08-11T12:17:36.765Z,1.65
2022-08-11T12:20:39.651Z,1.15
2022-08-11T12:24:04.463Z,1.48
2022-08-11T12:27:25.054Z,2.13
2022-08-11T12:30:28.278Z,2.53
2022-08-11T12:33:30.459Z,1.92
2022-08-11T12:36:36.995Z,1.63
2022-08-11T12:40:16.022Z,1.88
2022-08-11T12:43:57.185Z,1.80
2022-08-11T12:47:03.547Z,2.05
2022-08-11T12:50:24.968Z,1.95
2022-08-11T12:53:29.906Z,1.50
2022-08-11T12:56:59.951Z,1.38
2022-08-11T13:00:21.619Z,1.63
2022-08-11T13:03:43.440Z,1.38
2022-08-11T13:06:55.840Z,1.80
2022-08-11T13:10:02.765Z,1.40
2022-08-11T13:13:55.226Z,1.50
2022-08-11T13:16:32.560Z,1.45
2022-08-11T13:19:35.677Z,1.40
2022-08-11T13:22:38.821Z,1.48
2022-08-11T13:25:41.749Z,1.13
2022-08-11T13:28:46.264Z,1.30
2022-08-11T13:31:50.693Z,1.30
2022-08-11T13:34:53.330Z,1.85
2022-08-11T13:38:27.022Z,1.25
2022-08-11T13:41:41.865Z,1.50
2022-08-11T13:44:44.437Z,1.02
2022-08-11T13:47:46.939Z,1.80
2022-08-11T13:51:07.805Z,1.48
2022-08-11T13:54:12.268Z,1.70
2022-08-11T13:58:08.583Z,1.60
2022-08-11T14:00:38.799Z,1.17
2022-08-11T14:04:29.026Z,1.27
2022-08-11T14:07:22.851Z,1.23
2022-08-11T14:10:29.072Z,1.48
2022-08-11T14:13:42.582Z,1.20
2022-08-11T14:16:54.198Z,1.27
2022-08-11T14:19:57.831Z,1.05
2022-08-11T14:23:00.433Z,1.17
2022-08-11T14:26:21.646Z,1.25
2022-08-11T14:29:27.882Z,1.30
2022-08-11T14:32:30.397Z,1.25
2022-08-11T14:35:33.746Z,0.93
2022-08-11T14:38:38.381Z,2.10
2022-08-11T14:42:11.715Z,1.20
2022-08-11T14:45:58.166Z,1.33
2022-08-11T14:49:00.255Z,1.52
2022-08-11T14:52:07.995Z,1.38
2022-08-11T14:55:29.662Z,1.33
2022-08-11T14:58:34.000Z,1.00
2022-08-11T15:01:54.728Z,0.82
2022-08-11T15:05:00.044Z,1.10
2022-08-11T15:08:02.537Z,1.15
2022-08-11T15:11:24.806Z,1.00
2022-08-11T15:14:45.408Z,1.00
2022-08-11T15:17:49.390Z,1.15
2022-08-11T15:21:10.334Z,1.00
2022-08-11T15:24:21.787Z,1.02
2022-08-11T15:27:44.007Z,1.05
2022-08-11T15:31:11.649Z,1.63
2022-08-11T15:34:35.780Z,1.05
2022-08-11T15:37:40.567Z,0.90
2022-08-11T15:41:01.658Z,1.02
2022-08-11T15:44:51.444Z,1.30
2022-08-11T15:48:05.520Z,1.38
2022-08-11T15:51:25.058Z,1.52
2022-08-11T15:54:31.340Z,1.23
2022-08-11T15:57:53.387Z,1.75
2022-08-11T16:01:15.422Z,1.92
2022-08-11T16:04:21.034Z,1.25
2022-08-11T16:07:34.257Z,1.10
2022-08-11T16:10:44.880Z,1.38
2022-08-11T16:14:08.602Z,1.38
2022-08-11T16:17:15.392Z,1.77
2022-08-11T16:20:21.423Z,1.02
2022-08-11T16:23:28.343Z,1.50
2022-08-11T16:27:07.585Z,1.15
2022-08-11T16:30:00.495Z,1.20
2022-08-11T16:33:48.410Z,1.60
2022-08-11T16:36:49.309Z,1.33
2022-08-11T16:39:51.536Z,1.40
2022-08-11T16:43:13.776Z,1.55
2022-08-11T16:46:37.383Z,1.08
2022-08-11T16:49:50.612Z,1.60
2022-08-11T16:52:55.009Z,1.40
2022-08-11T16:56:03.257Z,1.30
2022-08-11T16:59:15.225Z,1.42
2022-08-11T17:02:38.405Z,1.13
2022-08-11T17:06:07.721Z,1.48
2022-08-11T17:09:31.591Z,1.77
2022-08-11T17:12:53.895Z,1.40
2022-08-11T17:16:07.389Z,1.27
2022-08-11T17:19:17.265Z,1.33
2022-08-11T17:22:41.929Z,1.48
2022-08-11T17:25:59.608Z,1.38
2022-08-11T17:29:10.743Z,1.02
2022-08-11T17:32:56.222Z,1.52
2022-08-11T17:36:03.443Z,1.40
2022-08-11T17:39:06.116Z,1.50
2022-08-11T17:42:28.409Z,1.40
2022-08-11T17:45:49.512Z,1.48
2022-08-11T17:48:51.988Z,1.63
2022-08-11T17:52:16.594Z,1.20
2022-08-11T17:55:52.104Z,1.00
2022-08-11T17:59:15.869Z,1.85
2022-08-11T18:02:43.873Z,1.50
2022-08-11T18:05:49.930Z,1.90
2022-08-11T18:09:12.183Z,1.33
2022-08-11T18:12:33.126Z,2.20
2022-08-11T18:15:56.485Z,2.03
2022-08-11T18:19:17.937Z,1.73
2022-08-11T18:22:53.686Z,2.10
2022-08-11T18:26:20.049Z,1.55
2022-08-11T18:29:42.311Z,2.25
2022-08-11T18:36:52.794Z,1.85
2022-08-11T18:40:35.019Z,2.42
2022-08-11T18:44:01.221Z,1.95
2022-08-11T18:47:30.726Z,2.22
2022-08-11T18:51:00.654Z,2.00
2022-08-11T18:54:38.426Z,4.50
2022-08-11T18:58:00.686Z,2.60
2022-08-11T19:01:25.577Z,3.08
2022-08-11T19:04:47.898Z,2.97
2022-08-11T19:08:10.795Z,3.00
2022-08-11T19:11:32.498Z,3.65
2022-08-11T19:14:54.224Z,2.97
2022-08-11T19:18:16.032Z,2.50
2022-08-11T19:21:37.281Z,2.97
2022-08-11T19:25:00.143Z,3.90
2022-08-11T19:28:25.933Z,3.63
2022-08-11T19:31:47.419Z,3.42
2022-08-11T19:35:09.258Z,4.22
2022-08-11T19:38:30.538Z,2.78
2022-08-11T19:41:57.562Z,3.63
2022-08-11T19:45:21.503Z,3.72
2022-08-11T19:48:45.735Z,3.65
2022-08-11T19:52:08.018Z,3.60
2022-08-11T19:55:29.370Z,3.13
2022-08-11T19:58:50.839Z,3.55
2022-08-11T20:02:14.076Z,4.32
2022-08-11T20:05:35.287Z,3.50
2022-08-11T20:09:00.424Z,3.10
2022-08-11T20:12:23.203Z,3.75
2022-08-11T20:15:46.599Z,3.60
2022-08-11T20:19:11.133Z,3.85
2022-08-11T20:22:34.845Z,2.88
2022-08-11T20:26:08.498Z,4.10
2022-08-11T20:29:38.108Z,3.70
2022-08-11T20:33:06.652Z,3.25
2022-08-11T20:36:28.898Z,3.25
2022-08-11T20:39:51.753Z,4.03
2022-08-11T20:43:16.730Z,3.83
2022-08-11T20:46:59.020Z,3.50
2022-08-11T20:50:21.457Z,3.20
2022-08-11T20:53:45.405Z,3.80
2022-08-11T20:57:11.330Z,2.67
2022-08-11T21:00:39.157Z,3.67
2022-08-11T21:04:00.782Z,3.15
2022-08-11T21:07:39.371Z,2.85
2022-08-11T21:11:05.942Z,2.97
2022-08-11T21:14:31.091Z,3.53
2022-08-11T21:18:00.813Z,3.58
2022-08-11T21:21:30.182Z,3.03
2022-08-11T21:25:07.006Z,4.03
2022-08-11T21:28:29.775Z,3.15
2022-08-11T21:31:52.664Z,4.18
2022-08-11T21:35:15.280Z,3.40
2022-08-11T21:38:36.480Z,4.10
2022-08-11T21:41:58.587Z,3.35
2022-08-11T21:45:20.919Z,2.47
2022-08-11T21:48:44.674Z,3.53
2022-08-11T21:52:05.863Z,2.80
2022-08-11T21:55:27.999Z,3.60
2022-08-11T21:58:50.865Z,3.50
2022-08-11T22:02:13.017Z,3.05
2022-08-11T22:05:36.028Z,4.03
2022-08-11T22:08:56.727Z,2.83
2022-08-11T22:12:34.352Z,3.38
2022-08-11T22:15:57.664Z,3.15
2022-08-11T22:19:19.976Z,3.38
2022-08-11T22:22:52.315Z,3.17
2022-08-11T22:26:14.142Z,3.78
2022-08-11T22:29:50.618Z,3.78
2022-08-11T22:33:15.011Z,3.13
2022-08-11T22:36:37.096Z,3.45
2022-08-11T22:40:02.122Z,3.42
2022-08-11T22:43:24.860Z,3.67
2022-08-11T22:46:47.272Z,3.25
2022-08-11T22:50:14.158Z,3.95
2022-08-11T22:53:58.455Z,3.40
2022-08-11T22:57:18.239Z,3.38
2022-08-11T23:00:39.031Z,3.47
2022-08-11T23:03:59.793Z,3.50
2022-08-11T23:07:49.917Z,3.83
2022-08-11T23:11:02.515Z,3.67
2022-08-11T23:14:23.354Z,3.88
2022-08-11T23:17:45.742Z,3.47
2022-08-11T23:21:06.671Z,4.15
2022-08-11T23:24:29.101Z,3.80
2022-08-11T23:27:53.562Z,4.15
2022-08-11T23:31:18.172Z,3.47
2022-08-11T23:35:37.246Z,4.70
2022-08-11T23:38:28.734Z,4.72
2022-08-11T23:41:49.867Z,4.00
2022-08-11T23:45:10.556Z,3.70
2022-08-11T23:48:35.341Z,4.45
2022-08-11T23:51:58.939Z,3.53
2022-08-11T23:55:20.294Z,4.38
2022-08-11T23:58:40.908Z,5.40
